Time;durP1;ratioP1;P1;durP2;ratioP2;P2;SDS_P1;SDS_P2;PMS_P1;PMS_P2;Temp;Humidity;BMP_temperature;BMP_pressure;BME280_temperature;BME280_humidity;BME280_pressure;Samples;Min_cycle;Max_cycle;Signal;HPM_P1;HPM_P2
2023/04/14 00:01:00;;;;;;;2.53;0.60;;;17.90;99.90;;;;;;4949722;29;20201;-75
2023/04/14 00:03:33;;;;;;;3.58;0.70;;;18.00;99.90;;;;;;4951254;28;20236;-75
2023/04/14 00:06:04;;;;;;;2.25;0.60;;;17.90;99.90;;;;;;4952716;28;20657;-75
2023/04/14 00:08:35;;;;;;;3.17;0.60;;;18.00;99.90;;;;;;4954982;28;20304;-75
2023/04/14 00:11:07;;;;;;;2.80;0.45;;;18.00;99.90;;;;;;4951933;28;20569;-75
2023/04/14 00:13:38;;;;;;;3.28;0.57;;;18.00;99.90;;;;;;4946866;29;20205;-75
2023/04/14 00:16:10;;;;;;;2.83;0.57;;;18.00;99.90;;;;;;4943891;28;20661;-75
2023/04/14 00:18:43;;;;;;;3.03;0.73;;;18.00;99.90;;;;;;4949986;29;20216;-75
2023/04/14 00:21:14;;;;;;;4.15;1.10;;;18.10;99.90;;;;;;4952515;28;20197;-75
2023/04/14 00:23:45;;;;;;;2.85;0.80;;;18.10;99.90;;;;;;4954967;28;20197;-75
2023/04/14 00:26:16;;;;;;;2.45;0.70;;;18.10;99.90;;;;;;4953974;28;20205;-75
2023/04/14 00:28:47;;;;;;;3.30;0.70;;;18.20;99.90;;;;;;4951841;29;20235;-75
2023/04/14 00:31:19;;;;;;;4.63;0.95;;;18.40;99.90;;;;;;4952668;29;20671;-75
2023/04/14 00:33:52;;;;;;;4.53;0.85;;;18.40;99.90;;;;;;4955075;28;20197;-75
2023/04/14 00:36:23;;;;;;;3.75;0.80;;;18.60;99.90;;;;;;4951963;29;20220;-75
2023/04/14 00:38:54;;;;;;;2.00;0.55;;;18.80;99.90;;;;;;4956163;28;20561;-76
2023/04/14 00:41:25;;;;;;;3.72;0.65;;;19.00;99.90;;;;;;4953945;29;20205;-75
2023/04/14 00:43:57;;;;;;;5.70;0.82;;;19.40;99.90;;;;;;4955327;29;20197;-75
2023/04/14 00:46:29;;;;;;;4.68;0.80;;;19.50;99.90;;;;;;4955861;29;20213;-75
2023/04/14 00:49:02;;;;;;;3.30;0.82;;;19.60;99.90;;;;;;4955703;29;20225;-76
2023/04/14 00:51:33;;;;;;;2.40;0.68;;;19.60;99.90;;;;;;4957437;28;20243;-77
2023/04/14 00:54:07;;;;;;;2.75;0.60;;;19.70;99.90;;;;;;4955839;29;20662;-76
2023/04/14 00:56:38;;;;;;;3.10;0.70;;;19.80;99.90;;;;;;4952585;29;20203;-77
2023/04/14 00:59:10;;;;;;;3.85;0.90;;;20.00;99.90;;;;;;4949943;28;20204;-75
2023/04/14 01:01:42;;;;;;;2.38;0.50;;;20.00;99.90;;;;;;4953981;28;20712;-75
2023/04/14 01:04:15;;;;;;;5.15;0.98;;;20.10;99.90;;;;;;4955248;29;20544;-76
2023/04/14 01:06:46;;;;;;;3.53;0.80;;;20.30;99.90;;;;;;4954670;29;20208;-75
2023/04/14 01:09:18;;;;;;;5.35;0.70;;;20.40;99.90;;;;;;4955929;28;20201;-76
2023/04/14 01:11:56;;;;;;;4.28;0.65;;;20.30;99.90;;;;;;4955429;29;20200;-76
2023/04/14 01:14:37;;;;;;;2.92;0.60;;;20.20;99.90;;;;;;4955619;28;20196;-74
2023/04/14 01:17:15;;;;;;;2.60;0.50;;;19.70;99.90;;;;;;4954159;29;20618;-76
2023/04/14 01:20:09;;;;;;;3.00;0.68;;;19.20;99.90;;;;;;4956407;29;20252;-75
2023/04/14 01:22:46;;;;;;;3.65;0.70;;;18.80;99.90;;;;;;4938148;29;20273;-75
2023/04/14 01:25:42;;;;;;;2.05;0.65;;;18.50;99.90;;;;;;4938605;29;20205;-75
2023/04/14 01:28:24;;;;;;;1.77;0.50;;;18.30;99.90;;;;;;4932154;29;20237;-75
2023/04/14 01:31:05;;;;;;;4.53;0.60;;;18.20;99.90;;;;;;4938418;29;20196;-74
2023/04/14 01:33:41;;;;;;;3.40;0.60;;;18.10;99.90;;;;;;4938364;29;20193;-75
2023/04/14 01:36:15;;;;;;;3.58;0.80;;;18.10;99.90;;;;;;4938704;29;20514;-74
2023/04/14 01:38:50;;;;;;;4.43;1.23;;;18.10;99.90;;;;;;4938277;29;20646;-74
2023/04/14 01:41:24;;;;;;;1.80;0.80;;;18.10;99.90;;;;;;4945279;29;20208;-74
2023/04/14 01:43:57;;;;;;;2.88;0.90;;;18.10;99.90;;;;;;4957201;29;20641;-74
2023/04/14 01:46:28;;;;;;;2.13;0.90;;;18.10;99.90;;;;;;4956858;28;20197;-75
2023/04/14 01:49:01;;;;;;;3.60;1.15;;;18.10;99.90;;;;;;4957216;28;20229;-75
2023/04/14 01:51:34;;;;;;;3.72;1.13;;;18.00;99.90;;;;;;4957229;28;20284;-74
2023/04/14 01:54:06;;;;;;;4.13;1.85;;;18.00;99.90;;;;;;4957225;28;20634;-74
2023/04/14 01:56:39;;;;;;;4.78;0.80;;;18.10;99.90;;;;;;4957204;28;20560;-75
2023/04/14 01:59:12;;;;;;;5.53;1.08;;;18.10;99.90;;;;;;4953489;29;20212;-74
2023/04/14 02:01:44;;;;;;;2.72;0.88;;;18.10;99.90;;;;;;4956970;28;20618;-74
2023/04/14 02:04:19;;;;;;;3.53;0.80;;;18.20;99.90;;;;;;4957051;29;20564;-74
2023/04/14 02:06:53;;;;;;;1.63;0.70;;;18.40;99.90;;;;;;4957065;28;20197;-73
2023/04/14 02:09:24;;;;;;;1.77;0.70;;;18.50;99.90;;;;;;4957043;29;20220;-74
2023/04/14 02:11:57;;;;;;;1.58;0.68;;;18.60;99.90;;;;;;4956700;28;20200;-74
2023/04/14 02:14:28;;;;;;;2.83;0.73;;;18.70;99.90;;;;;;4956898;28;20280;-74
2023/04/14 02:17:01;;;;;;;2.22;0.70;;;18.80;99.90;;;;;;4951236;28;20202;-75
2023/04/14 02:19:36;;;;;;;5.57;0.85;;;18.90;99.90;;;;;;4949851;29;20237;-74
2023/04/14 02:22:08;;;;;;;4.03;1.70;;;19.00;99.90;;;;;;4956758;28;20200;-74
2023/04/14 02:24:39;;;;;;;3.88;1.20;;;19.20;99.90;;;;;;4956881;29;20224;-74
2023/04/14 02:27:15;;;;;;;4.40;1.00;;;19.40;99.90;;;;;;4956587;29;20197;-75
2023/04/14 02:29:52;;;;;;;3.25;0.90;;;19.50;99.90;;;;;;4956804;29;20196;-75
2023/04/14 02:32:27;;;;;;;4.18;0.95;;;19.80;99.90;;;;;;4956890;28;20193;-75
2023/04/14 02:35:06;;;;;;;5.43;1.20;;;19.90;99.90;;;;;;4956527;29;20240;-75
2023/04/14 02:37:40;;;;;;;5.70;1.00;;;19.80;99.90;;;;;;4954914;29;20208;-75
2023/04/14 02:40:19;;;;;;;3.85;0.90;;;19.80;99.90;;;;;;4956185;28;20192;-75
2023/04/14 02:42:57;;;;;;;3.88;0.82;;;19.80;99.90;;;;;;4956259;29;20200;-75
2023/04/14 02:45:32;;;;;;;5.75;1.05;;;19.70;99.90;;;;;;4956329;29;20204;-75
2023/04/14 02:48:09;;;;;;;4.03;0.73;;;19.70;99.90;;;;;;4956080;29;20244;-75
2023/04/14 02:50:46;;;;;;;5.38;1.00;;;19.60;99.90;;;;;;4956203;29;20196;-75
2023/04/14 02:53:20;;;;;;;5.13;1.05;;;19.50;99.90;;;;;;4956121;28;20199;-75
2023/04/14 02:55:53;;;;;;;6.32;1.00;;;19.40;99.90;;;;;;4955922;29;20281;-75
2023/04/14 02:58:24;;;;;;;3.03;0.90;;;19.20;99.90;;;;;;4955541;28;20252;-75
2023/04/14 03:00:56;;;;;;;7.72;1.10;;;19.40;99.90;;;;;;4955886;29;20196;-76
2023/04/14 03:03:29;;;;;;;5.65;1.00;;;19.40;99.90;;;;;;4955775;29;20236;-76
2023/04/14 03:06:02;;;;;;;2.63;0.80;;;19.50;99.90;;;;;;4955855;29;20208;-76
2023/04/14 03:08:34;;;;;;;3.80;0.80;;;19.60;99.90;;;;;;4948493;28;20228;-76
2023/04/14 03:11:06;;;;;;;3.80;0.70;;;19.80;99.90;;;;;;4955671;28;20193;-77
2023/04/14 03:13:39;;;;;;;8.45;1.30;;;19.90;99.90;;;;;;4955725;28;20255;-76
2023/04/14 03:16:11;;;;;;;6.22;1.05;;;20.00;99.90;;;;;;4955763;29;20193;-77
2023/04/14 03:18:43;;;;;;;4.72;1.00;;;20.10;99.90;;;;;;4955674;29;20193;-76
2023/04/14 03:21:18;;;;;;;6.20;0.85;;;20.30;99.90;;;;;;4955729;28;20573;-76
2023/04/14 03:23:51;;;;;;;6.00;0.70;;;20.40;99.90;;;;;;4955365;29;20189;-76
2023/04/14 03:26:25;;;;;;;3.40;0.80;;;20.50;99.90;;;;;;4955627;29;20232;-77
2023/04/14 03:28:58;;;;;;;5.40;0.82;;;20.70;99.90;;;;;;4955411;29;20220;-76
2023/04/14 03:31:33;;;;;;;3.80;0.93;;;20.80;99.90;;;;;;4942710;28;20208;-75
2023/04/14 03:34:06;;;;;;;5.78;0.80;;;20.90;99.90;;;;;;4945711;29;20208;-75
2023/04/14 03:36:40;;;;;;;6.13;0.80;;;21.00;99.90;;;;;;4955346;29;20205;-78
2023/04/14 03:39:15;;;;;;;3.03;0.73;;;20.80;99.90;;;;;;4955043;29;20215;-75
2023/04/14 03:41:50;;;;;;;4.85;0.80;;;20.70;99.90;;;;;;4955279;28;20189;-75
2023/04/14 03:44:24;;;;;;;2.95;0.68;;;20.60;99.90;;;;;;4955336;28;20275;-77
2023/04/14 03:46:56;;;;;;;3.80;0.77;;;20.70;99.90;;;;;;4955586;29;20228;-75
2023/04/14 03:49:27;;;;;;;6.82;0.95;;;20.70;99.90;;;;;;4955095;29;20596;-76
2023/04/14 03:52:03;;;;;;;4.68;0.80;;;20.70;99.90;;;;;;4955206;28;20572;-75
2023/04/14 03:54:36;;;;;;;1.10;0.70;;;20.70;99.90;;;;;;4954912;29;20192;-75
2023/04/14 03:57:10;;;;;;;2.47;0.70;;;20.70;99.90;;;;;;4951873;28;20200;-75
2023/04/14 03:59:43;;;;;;;4.25;0.60;;;20.70;99.90;;;;;;4955088;28;20193;-75
2023/04/14 04:02:17;;;;;;;3.60;0.50;;;20.60;99.90;;;;;;4954820;29;20244;-76
2023/04/14 04:04:50;;;;;;;1.95;0.63;;;20.70;99.90;;;;;;4955200;28;20192;-76
2023/04/14 04:07:24;;;;;;;2.80;1.13;;;20.70;99.90;;;;;;4954945;29;20193;-75
2023/04/14 04:09:58;;;;;;;4.22;0.60;;;20.70;99.90;;;;;;4956927;28;20605;-76
2023/04/14 04:12:29;;;;;;;2.30;0.55;;;20.70;99.90;;;;;;4959093;29;20224;-76
2023/04/14 04:15:01;;;;;;;1.33;0.40;;;20.70;99.90;;;;;;4959152;29;20209;-75
2023/04/14 04:17:34;;;;;;;5.28;0.60;;;20.90;99.90;;;;;;4959098;28;20200;-76
2023/04/14 04:20:10;;;;;;;2.95;0.70;;;20.90;99.90;;;;;;4958923;29;20196;-75
2023/04/14 04:22:45;;;;;;;2.83;0.63;;;20.90;99.90;;;;;;4958693;29;20196;-75
2023/04/14 04:25:17;;;;;;;2.25;1.02;;;20.90;99.90;;;;;;4958942;28;20199;-75
2023/04/14 04:27:49;;;;;;;4.88;0.77;;;21.00;99.90;;;;;;4958593;29;20193;-75
2023/04/14 04:30:22;;;;;;;3.90;0.60;;;21.00;99.90;;;;;;4958706;28;20197;-75
2023/04/14 04:32:54;;;;;;;3.05;0.57;;;21.00;99.90;;;;;;4958731;28;20775;-76
2023/04/14 04:35:26;;;;;;;5.40;0.63;;;21.00;99.90;;;;;;4958664;29;20664;-75
2023/04/14 04:38:01;;;;;;;2.28;0.80;;;20.90;99.90;;;;;;4958493;28;20197;-76
2023/04/14 04:40:38;;;;;;;5.47;0.77;;;21.00;99.90;;;;;;4958422;29;20197;-76
2023/04/14 04:43:10;;;;;;;1.67;0.50;;;20.90;99.90;;;;;;4958550;29;20196;-75
2023/04/14 04:46:24;;;;;;;3.30;0.47;;;20.90;99.90;;;;;;4958401;29;20336;-75
2023/04/14 04:48:57;;;;;;;2.63;0.63;;;20.80;99.90;;;;;;4924441;28;20228;-76
2023/04/14 04:51:28;;;;;;;7.10;0.80;;;20.80;99.90;;;;;;4958132;29;20220;-73
2023/04/14 04:54:01;;;;;;;6.38;0.80;;;20.90;99.90;;;;;;4958491;28;20193;-75
2023/04/14 04:56:32;;;;;;;4.30;0.70;;;20.90;99.90;;;;;;4958712;28;20197;-75
2023/04/14 04:59:04;;;;;;;0.60;0.32;;;20.70;99.90;;;;;;4944648;28;20214;-79
2023/04/14 05:01:35;;;;;;;4.72;0.60;;;20.50;99.90;;;;;;4957824;29;20687;-76
2023/04/14 05:04:06;;;;;;;1.67;0.60;;;20.30;99.90;;;;;;4958186;28;20201;-76
2023/04/14 05:06:40;;;;;;;4.50;0.73;;;20.20;99.90;;;;;;4958401;28;20189;-77
2023/04/14 05:09:13;;;;;;;4.15;0.90;;;20.10;99.90;;;;;;4958089;28;20217;-76
2023/04/14 05:11:44;;;;;;;3.42;0.70;;;20.00;99.90;;;;;;4958205;28;20542;-75
2023/04/14 05:14:15;;;;;;;5.40;1.02;;;19.80;99.90;;;;;;4957952;28;20716;-76
2023/04/14 05:16:47;;;;;;;3.22;0.60;;;19.50;99.90;;;;;;4958052;28;20675;-76
2023/04/14 05:19:18;;;;;;;3.10;0.63;;;19.30;99.90;;;;;;4954078;28;20193;-76
2023/04/14 05:21:49;;;;;;;4.47;0.88;;;19.10;99.90;;;;;;4956816;28;20196;-77
2023/04/14 05:24:22;;;;;;;2.08;0.55;;;19.10;99.90;;;;;;4957653;29;20200;-76
2023/04/14 05:26:53;;;;;;;4.43;0.82;;;19.10;99.90;;;;;;4957779;29;20193;-77
2023/04/14 05:29:24;;;;;;;2.58;0.60;;;19.10;99.90;;;;;;4957538;29;20225;-77
2023/04/14 05:31:55;;;;;;;4.53;0.70;;;19.20;99.90;;;;;;4958028;29;20200;-77
2023/04/14 05:34:26;;;;;;;4.00;0.70;;;19.20;99.90;;;;;;4957464;29;20204;-76
2023/04/14 05:36:57;;;;;;;3.60;0.80;;;19.30;99.90;;;;;;4957582;29;20570;-76
2023/04/14 05:39:30;;;;;;;2.65;0.60;;;19.20;99.90;;;;;;4957524;29;20200;-76
2023/04/14 05:42:01;;;;;;;3.92;0.60;;;19.20;99.90;;;;;;4957569;29;20197;-77
2023/04/14 05:44:32;;;;;;;1.90;0.50;;;19.30;99.90;;;;;;4957665;28;20201;-77
2023/04/14 05:47:03;;;;;;;3.42;0.60;;;19.30;99.90;;;;;;4957426;28;20196;-76
2023/04/14 05:49:34;;;;;;;3.22;0.60;;;19.30;99.90;;;;;;4957208;28;20231;-76
2023/04/14 05:52:05;;;;;;;5.95;0.60;;;19.40;99.90;;;;;;4957246;28;20204;-76
2023/04/14 05:54:38;;;;;;;3.95;0.63;;;19.40;99.90;;;;;;4957372;28;20193;-76
2023/04/14 05:57:09;;;;;;;3.08;0.50;;;19.40;99.90;;;;;;4957316;28;20560;-76
2023/04/14 05:59:40;;;;;;;2.42;0.55;;;19.40;99.90;;;;;;4957163;28;20193;-77
2023/04/14 06:02:11;;;;;;;3.47;0.60;;;19.40;99.90;;;;;;4956966;28;20704;-76
2023/04/14 06:04:42;;;;;;;3.97;0.90;;;19.40;99.90;;;;;;4957073;28;20200;-76
2023/04/14 06:07:13;;;;;;;3.92;0.70;;;19.50;99.90;;;;;;4957288;28;20193;-76
2023/04/14 06:09:50;;;;;;;6.72;1.13;;;19.50;99.90;;;;;;4957263;29;20220;-78
2023/04/14 06:12:21;;;;;;;3.72;0.82;;;19.60;99.90;;;;;;4956897;28;20193;-77
2023/04/14 06:14:52;;;;;;;4.03;0.60;;;19.60;99.90;;;;;;4957119;29;20189;-76
2023/04/14 06:17:23;;;;;;;6.13;0.90;;;19.70;99.90;;;;;;4956953;29;20200;-77
2023/04/14 06:19:54;;;;;;;5.00;0.70;;;19.80;99.90;;;;;;4951934;29;20205;-76
2023/04/14 06:22:28;;;;;;;6.50;1.13;;;19.80;99.90;;;;;;4949015;29;20201;-76
2023/04/14 06:25:01;;;;;;;3.90;0.70;;;19.80;99.90;;;;;;4956717;28;20279;-77
2023/04/14 06:27:32;;;;;;;3.95;0.75;;;19.70;99.90;;;;;;4956918;29;20201;-76
2023/04/14 06:30:03;;;;;;;5.45;0.80;;;19.70;99.90;;;;;;4956519;29;20756;-78
2023/04/14 06:32:34;;;;;;;3.58;0.60;;;19.70;99.90;;;;;;4956657;28;20547;-78
2023/04/14 06:35:07;;;;;;;5.53;0.65;;;19.60;99.90;;;;;;4956439;29;20676;-77
2023/04/14 06:37:38;;;;;;;2.60;0.70;;;19.50;99.90;;;;;;4956680;28;20193;-77
2023/04/14 06:40:13;;;;;;;3.75;0.80;;;19.50;99.90;;;;;;4956733;28;20760;-76
2023/04/14 06:42:44;;;;;;;5.07;0.85;;;19.50;99.90;;;;;;4956505;29;20196;-76
2023/04/14 06:45:15;;;;;;;8.30;0.95;;;19.40;99.90;;;;;;4956297;29;20201;-76
2023/04/14 06:47:46;;;;;;;3.03;0.75;;;19.40;99.90;;;;;;4956125;29;20681;-77
2023/04/14 06:50:17;;;;;;;3.85;0.77;;;19.40;99.90;;;;;;4955969;29;20216;-76
2023/04/14 06:52:48;;;;;;;3.85;0.82;;;19.40;99.90;;;;;;4952442;29;20201;-77
2023/04/14 06:55:22;;;;;;;6.70;0.70;;;19.40;99.90;;;;;;4948458;29;20211;-78
2023/04/14 06:57:53;;;;;;;4.72;1.00;;;19.40;99.90;;;;;;4947007;29;20206;-77
2023/04/14 07:00:24;;;;;;;4.65;0.63;;;19.30;99.90;;;;;;4950232;29;20205;-77
2023/04/14 07:02:55;;;;;;;3.28;0.70;;;19.30;99.90;;;;;;4948222;29;20703;-77
2023/04/14 07:05:27;;;;;;;3.10;0.80;;;19.30;99.90;;;;;;4948258;28;21038;-78
2023/04/14 07:07:58;;;;;;;6.38;0.77;;;19.30;99.90;;;;;;4949693;29;20212;-77
2023/04/14 07:10:31;;;;;;;5.10;0.80;;;19.30;99.90;;;;;;4948983;29;20221;-77
2023/04/14 07:13:02;;;;;;;3.33;0.65;;;19.20;99.90;;;;;;4953636;28;20221;-78
2023/04/14 07:15:33;;;;;;;4.43;0.85;;;19.20;99.90;;;;;;4955134;28;20200;-77
2023/04/14 07:18:04;;;;;;;2.70;0.60;;;19.20;99.90;;;;;;4953995;29;20377;-77
2023/04/14 07:20:35;;;;;;;4.13;1.00;;;19.10;99.90;;;;;;4956101;28;20200;-78
2023/04/14 07:23:06;;;;;;;2.40;0.45;;;19.10;99.90;;;;;;4953501;28;20217;-77
2023/04/14 07:25:40;;;;;;;3.38;0.60;;;19.10;99.90;;;;;;4952198;29;20217;-76
2023/04/14 07:28:12;;;;;;;3.45;1.00;;;19.10;99.90;;;;;;4955117;28;20206;-78
2023/04/14 07:30:43;;;;;;;5.15;1.00;;;19.10;99.90;;;;;;4954870;29;20681;-78
2023/04/14 07:33:17;;;;;;;5.70;0.98;;;19.10;99.90;;;;;;4955464;29;20189;-76
2023/04/14 07:35:48;;;;;;;3.88;1.00;;;19.00;99.90;;;;;;4955616;28;20281;-77
2023/04/14 07:38:19;;;;;;;3.55;0.70;;;19.00;99.90;;;;;;4953107;28;20197;-78
2023/04/14 07:40:52;;;;;;;4.20;0.85;;;19.00;99.90;;;;;;4955407;28;20559;-78
2023/04/14 07:43:23;;;;;;;4.28;0.93;;;19.10;99.90;;;;;;4955285;28;20675;-78
2023/04/14 07:45:54;;;;;;;4.63;0.75;;;19.00;99.90;;;;;;4970317;28;20192;-79
2023/04/14 07:48:26;;;;;;;3.75;0.90;;;19.00;99.90;;;;;;4974925;28;20203;-78
2023/04/14 07:50:57;;;;;;;3.67;0.85;;;19.00;99.90;;;;;;4974493;28;20224;-78
2023/04/14 07:53:28;;;;;;;2.55;0.82;;;19.00;99.90;;;;;;4971707;28;20204;-76
2023/04/14 07:56:02;;;;;;;3.42;1.20;;;19.00;99.90;;;;;;4950759;28;20215;-76
2023/04/14 07:58:33;;;;;;;5.35;1.00;;;19.00;99.90;;;;;;4952531;28;20227;-75
2023/04/14 08:01:04;;;;;;;5.32;1.00;;;19.00;99.90;;;;;;4944431;29;20208;-76
2023/04/14 08:03:36;;;;;;;1.98;0.80;;;19.00;99.90;;;;;;4944688;29;20460;-76
2023/04/14 08:06:08;;;;;;;5.50;1.00;;;19.00;99.90;;;;;;4953125;28;20208;-76
2023/04/14 08:08:39;;;;;;;2.28;0.80;;;19.00;99.90;;;;;;4953853;28;20197;-76
2023/04/14 08:11:12;;;;;;;3.20;0.80;;;19.00;99.90;;;;;;4945666;29;20213;-79
2023/04/14 08:13:44;;;;;;;4.40;0.88;;;19.00;99.90;;;;;;4948530;29;20221;-78
2023/04/14 08:16:15;;;;;;;4.78;1.30;;;18.90;99.90;;;;;;4951235;28;20205;-78
2023/04/14 08:18:46;;;;;;;4.00;0.90;;;18.90;99.90;;;;;;4953841;28;20205;-78
2023/04/14 08:21:17;;;;;;;3.03;0.88;;;18.90;99.90;;;;;;4952310;28;20201;-77
2023/04/14 08:23:48;;;;;;;5.20;0.95;;;18.90;99.90;;;;;;4951990;29;20253;-78
2023/04/14 08:26:21;;;;;;;5.13;1.20;;;18.90;99.90;;;;;;4944313;28;20200;-78
2023/04/14 08:28:52;;;;;;;3.83;1.00;;;18.80;99.90;;;;;;4953529;28;20208;-79
2023/04/14 08:31:26;;;;;;;3.53;1.10;;;18.90;99.90;;;;;;4954588;28;20217;-79
2023/04/14 08:33:57;;;;;;;4.38;0.93;;;18.80;99.90;;;;;;4954501;28;20204;-78
2023/04/14 08:36:28;;;;;;;3.70;1.05;;;18.80;99.90;;;;;;4935641;29;20669;-78
2023/04/14 08:39:00;;;;;;;2.13;0.90;;;18.80;99.90;;;;;;4935322;29;20194;-78
2023/04/14 08:41:36;;;;;;;4.22;1.10;;;18.80;99.90;;;;;;4938662;29;20197;-78
2023/04/14 08:44:07;;;;;;;7.60;1.95;;;18.80;99.90;;;;;;4953801;29;20212;-77
2023/04/14 08:46:39;;;;;;;9.18;1.88;;;18.80;99.90;;;;;;4947755;29;20204;-78
2023/04/14 08:49:14;;;;;;;9.00;2.10;;;18.70;99.90;;;;;;4950894;29;20570;-78
2023/04/14 08:51:47;;;;;;;6.07;1.30;;;18.60;99.90;;;;;;4935659;29;20214;-79
2023/04/14 08:54:19;;;;;;;8.57;1.35;;;18.50;99.90;;;;;;4942406;29;20201;-78
2023/04/14 08:56:52;;;;;;;5.15;1.10;;;18.40;99.90;;;;;;4953383;28;20198;-79
2023/04/14 08:59:23;;;;;;;4.40;0.90;;;18.30;99.90;;;;;;4955565;29;20209;-79
2023/04/14 09:01:56;;;;;;;4.70;1.02;;;18.20;99.90;;;;;;4957459;29;20244;-77
2023/04/14 09:04:28;;;;;;;4.75;1.30;;;18.20;99.90;;;;;;4952321;29;20197;-78
2023/04/14 09:07:00;;;;;;;4.53;1.40;;;18.10;99.90;;;;;;4940630;29;20216;-78
2023/04/14 09:09:32;;;;;;;5.32;1.05;;;18.00;99.90;;;;;;4952948;29;20209;-77
2023/04/14 09:12:05;;;;;;;4.95;1.10;;;18.00;99.90;;;;;;4951543;28;20220;-78
2023/04/14 09:14:37;;;;;;;5.88;1.08;;;18.00;99.90;;;;;;4955175;28;20299;-77
2023/04/14 09:17:08;;;;;;;4.88;1.00;;;17.90;99.90;;;;;;4952633;29;20688;-78
2023/04/14 09:19:40;;;;;;;3.45;0.98;;;17.90;99.90;;;;;;4956665;28;20204;-78
2023/04/14 09:22:11;;;;;;;3.50;0.90;;;17.90;99.90;;;;;;4952745;28;20691;-78
2023/04/14 09:24:42;;;;;;;6.35;1.08;;;17.80;99.90;;;;;;4953149;29;20197;-78
2023/04/14 09:27:15;;;;;;;9.05;1.38;;;17.80;99.90;;;;;;4955867;29;20284;-79
2023/04/14 09:29:46;;;;;;;7.20;1.42;;;17.80;99.90;;;;;;4953563;28;20216;-79
2023/04/14 09:32:18;;;;;;;7.20;1.10;;;17.80;99.90;;;;;;4956007;28;20204;-78
2023/04/14 09:34:53;;;;;;;6.22;1.00;;;17.80;99.90;;;;;;4957806;29;20209;-77
2023/04/14 09:37:24;;;;;;;6.28;1.25;;;17.80;99.90;;;;;;4955332;29;20200;-78
2023/04/14 09:39:56;;;;;;;5.60;0.93;;;17.70;99.90;;;;;;4947724;29;20205;-79
2023/04/14 09:42:41;;;;;;;3.60;0.90;;;17.80;99.90;;;;;;4954616;28;20201;-78
2023/04/14 09:45:13;;;;;;;6.43;1.30;;;17.70;99.90;;;;;;4950573;29;20276;-78
2023/04/14 09:47:44;;;;;;;4.80;1.05;;;17.70;99.90;;;;;;4953488;28;20207;-78
2023/04/14 09:50:15;;;;;;;3.50;0.85;;;17.70;99.90;;;;;;4954428;28;20220;-78
2023/04/14 09:52:47;;;;;;;3.30;0.90;;;17.70;99.90;;;;;;4954345;28;20216;-78
2023/04/14 09:55:18;;;;;;;4.15;1.00;;;17.70;99.90;;;;;;4953454;29;20196;-77
2023/04/14 09:57:52;;;;;;;4.45;0.98;;;17.70;99.90;;;;;;4955767;29;20197;-77
2023/04/14 10:00:24;;;;;;;6.40;1.17;;;17.70;99.90;;;;;;4955777;28;20578;-77
2023/04/14 10:02:57;;;;;;;2.90;0.93;;;17.70;99.90;;;;;;4952957;28;20723;-78
2023/04/14 10:05:30;;;;;;;5.18;0.90;;;17.70;99.90;;;;;;4952547;29;20196;-77
2023/04/14 10:08:05;;;;;;;5.55;1.60;;;17.70;99.90;;;;;;4955513;28;20193;-79
2023/04/14 10:10:36;;;;;;;5.65;1.25;;;17.70;99.90;;;;;;4951633;29;20220;-77
2023/04/14 10:13:13;;;;;;;5.28;1.17;;;17.70;99.90;;;;;;4953448;28;20588;-76
2023/04/14 10:15:44;;;;;;;4.47;1.00;;;17.70;99.90;;;;;;4948542;28;20215;-78
2023/04/14 10:18:16;;;;;;;6.68;1.50;;;17.70;99.90;;;;;;4954759;28;20205;-76
2023/04/14 10:20:47;;;;;;;5.10;1.20;;;17.70;99.90;;;;;;4955828;28;20725;-75
2023/04/14 10:23:18;;;;;;;3.90;1.10;;;17.70;99.90;;;;;;4954392;28;20205;-76
2023/04/14 10:25:50;;;;;;;5.95;1.35;;;17.70;99.90;;;;;;4954553;29;20676;-76
2023/04/14 10:28:25;;;;;;;6.57;1.40;;;17.70;99.90;;;;;;4951440;29;20201;-76
2023/04/14 10:30:56;;;;;;;10.23;1.90;;;17.70;99.90;;;;;;4954356;28;20220;-76
2023/04/14 10:33:28;;;;;;;3.78;1.35;;;17.70;99.90;;;;;;4954570;29;20205;-77
2023/04/14 10:36:01;;;;;;;4.43;1.55;;;17.70;99.90;;;;;;4955517;28;20737;-76
2023/04/14 10:38:46;;;;;;;7.13;1.58;;;17.70;99.90;;;;;;4956502;28;20201;-76
2023/04/14 10:41:17;;;;;;;6.72;1.48;;;17.60;99.90;;;;;;4956206;29;20319;-76
2023/04/14 10:43:50;;;;;;;3.83;1.55;;;17.70;99.90;;;;;;4955237;28;20216;-76
2023/04/14 10:46:22;;;;;;;6.00;1.50;;;17.60;99.90;;;;;;4953229;28;20664;-76
2023/04/14 10:48:54;;;;;;;4.47;1.60;;;17.60;99.90;;;;;;4956345;28;20755;-77
2023/04/14 10:51:37;;;;;;;6.13;1.73;;;17.60;99.90;;;;;;4953697;28;20252;-77
2023/04/14 10:54:20;;;;;;;5.43;1.63;;;17.60;99.90;;;;;;4955064;28;20204;-77
2023/04/14 10:57:13;;;;;;;6.72;2.17;;;17.60;99.90;;;;;;4961728;28;20197;-76
2023/04/14 10:59:48;;;;;;;5.03;1.85;;;17.50;99.90;;;;;;4940345;29;20220;-76
2023/04/14 11:02:33;;;;;;;4.57;1.80;;;17.50;99.90;;;;;;4952592;28;20695;-77
2023/04/14 11:05:09;;;;;;;5.05;1.58;;;17.50;99.90;;;;;;4954641;28;20196;-76
2023/04/14 11:07:45;;;;;;;7.53;1.92;;;17.50;99.90;;;;;;4953936;29;20200;-77
2023/04/14 11:10:36;;;;;;;7.22;2.03;;;17.50;99.90;;;;;;4953739;28;20212;-76
2023/04/14 11:13:10;;;;;;;6.32;1.88;;;17.40;99.90;;;;;;4953875;28;20235;-76
2023/04/14 11:15:53;;;;;;;5.97;1.90;;;17.30;99.90;;;;;;4945970;28;20222;-77
2023/04/14 11:18:35;;;;;;;3.65;1.50;;;17.30;99.90;;;;;;4953624;28;20205;-76
2023/04/14 11:21:08;;;;;;;6.68;1.80;;;17.20;99.90;;;;;;4955815;28;20200;-76
2023/04/14 11:23:39;;;;;;;3.63;1.35;;;17.10;99.90;;;;;;4954207;29;20212;-77
2023/04/14 11:26:12;;;;;;;4.93;1.50;;;17.10;99.90;;;;;;4954966;28;20642;-76
2023/04/14 11:28:45;;;;;;;5.32;1.48;;;17.10;99.90;;;;;;4940680;29;20661;-76
2023/04/14 11:31:18;;;;;;;4.45;1.60;;;17.00;99.90;;;;;;4942458;29;20220;-77
2023/04/14 11:33:49;;;;;;;4.75;1.40;;;17.00;99.90;;;;;;4953342;28;20208;-77
2023/04/14 11:36:21;;;;;;;4.60;1.70;;;16.90;99.90;;;;;;4955510;29;20204;-77
2023/04/14 11:38:52;;;;;;;6.68;2.05;;;16.90;99.90;;;;;;4957946;28;20658;-76
2023/04/14 11:41:24;;;;;;;2.78;1.45;;;16.90;99.90;;;;;;4954563;29;20212;-76
2023/04/14 11:43:55;;;;;;;5.30;1.65;;;16.90;99.90;;;;;;4953877;28;20201;-76
2023/04/14 11:46:28;;;;;;;3.00;1.50;;;16.90;99.90;;;;;;4954315;28;20774;-77
2023/04/14 11:49:02;;;;;;;5.20;1.55;;;16.90;99.90;;;;;;4951162;29;20205;-76
2023/04/14 11:51:33;;;;;;;5.20;1.60;;;16.90;99.90;;;;;;4951684;29;20225;-76
2023/04/14 11:54:04;;;;;;;4.82;1.60;;;16.90;99.90;;;;;;4954929;29;20197;-75
2023/04/14 11:56:37;;;;;;;5.90;1.70;;;16.80;99.90;;;;;;4955010;28;20201;-77
2023/04/14 11:59:08;;;;;;;5.10;1.25;;;16.80;99.90;;;;;;4953527;28;20201;-76
2023/04/14 12:01:42;;;;;;;6.00;1.52;;;16.80;99.90;;;;;;4953790;28;20204;-76
2023/04/14 12:04:13;;;;;;;5.55;1.60;;;16.70;99.90;;;;;;4951477;29;20201;-76
2023/04/14 12:06:45;;;;;;;3.17;1.38;;;16.70;99.90;;;;;;4954240;28;20650;-76
2023/04/14 12:09:16;;;;;;;6.10;1.60;;;16.70;99.90;;;;;;4952100;28;20208;-76
2023/04/14 12:11:56;;;;;;;4.65;1.50;;;16.60;99.90;;;;;;4953589;28;20232;-76
2023/04/14 12:14:27;;;;;;;4.57;1.52;;;16.60;99.90;;;;;;4949592;28;20192;-77
2023/04/14 12:17:01;;;;;;;7.60;1.65;;;16.60;99.90;;;;;;4948789;28;20658;-77
2023/04/14 12:19:32;;;;;;;3.58;1.67;;;16.60;99.90;;;;;;4946771;28;20196;-76
2023/04/14 12:22:03;;;;;;;4.35;1.60;;;16.50;99.90;;;;;;4952565;29;20208;-77
2023/04/14 12:24:40;;;;;;;3.28;1.70;;;16.50;99.90;;;;;;4956039;28;20201;-77
2023/04/14 12:27:11;;;;;;;7.40;1.77;;;16.40;99.90;;;;;;4952581;29;20205;-75
2023/04/14 12:29:46;;;;;;;7.20;1.60;;;16.40;99.90;;;;;;4950393;28;20576;-76
2023/04/14 12:32:20;;;;;;;4.75;1.30;;;16.30;99.90;;;;;;4954954;28;20779;-77
2023/04/14 12:35:00;;;;;;;4.07;1.45;;;16.30;99.90;;;;;;4955187;29;20542;-76
2023/04/14 12:37:31;;;;;;;3.05;1.48;;;16.30;99.90;;;;;;4945389;28;20197;-76
2023/04/14 12:40:05;;;;;;;5.30;1.65;;;16.30;99.90;;;;;;4956833;29;20568;-76
2023/04/14 12:42:51;;;;;;;3.60;1.48;;;16.30;99.90;;;;;;4953008;29;20231;-76
2023/04/14 12:45:22;;;;;;;5.05;1.58;;;16.20;99.90;;;;;;4954798;29;20206;-76
2023/04/14 12:47:59;;;;;;;3.97;1.95;;;16.20;99.90;;;;;;4954816;28;20197;-77
2023/04/14 12:50:32;;;;;;;5.50;2.42;;;16.20;99.90;;;;;;4946733;28;20201;-77
2023/04/14 12:53:03;;;;;;;6.07;2.90;;;16.20;99.90;;;;;;4957172;29;20260;-77
2023/04/14 12:55:35;;;;;;;5.72;2.53;;;16.20;99.90;;;;;;4956861;28;20197;-77
2023/04/14 12:58:06;;;;;;;6.68;2.40;;;16.20;99.90;;;;;;4955799;28;20204;-76
2023/04/14 13:00:38;;;;;;;5.50;1.95;;;16.20;99.90;;;;;;4956081;28;20228;-77
2023/04/14 13:03:11;;;;;;;3.45;1.85;;;16.20;99.90;;;;;;4955390;29;20224;-77
2023/04/14 13:05:42;;;;;;;3.97;1.67;;;16.20;99.90;;;;;;4957123;29;20201;-77
2023/04/14 13:08:13;;;;;;;4.45;1.60;;;16.20;99.90;;;;;;4962539;28;20205;-76
2023/04/14 13:10:45;;;;;;;3.10;1.58;;;16.20;99.90;;;;;;4952832;29;20553;-76
2023/04/14 13:13:16;;;;;;;3.63;1.80;;;16.20;99.90;;;;;;4955869;28;20586;-76
2023/04/14 13:15:47;;;;;;;6.95;1.80;;;16.10;99.90;;;;;;4955636;28;20240;-76
2023/04/14 13:18:20;;;;;;;3.97;1.48;;;16.20;99.90;;;;;;4952384;28;20210;-76